ADDS METAR Data INFO
IDs: Format: Raw Decoded Include TAF

Data at: 2051 UTC 19 Jul 2018

KELM 191953Z 10SM CLR 27/12 A3009 RMK AO2 SLP185 T02670117
KELM 191853Z 00000KT 10SM CLR 26/09 A3011 RMK AO2 SLP192 T02610089
KELM 191753Z 00000KT 10SM CLR 24/08 A3012 RMK AO2 SLP197 T02440083 10250 20122 58006
KELM 191653Z 00000KT 10SM CLR 24/09 A3013 RMK AO2 SLP199 T02440089
KELM 191553Z 19003KT 10SM CLR 23/09 A3013 RMK AO2 SLP200 T02280089
KELM 191453Z 18004KT 10SM CLR 22/10 A3014 RMK AO2 SLP202 T02170100 58004
KELM 191353Z 00000KT 10SM CLR 19/11 A3015 RMK AO2 SLP206 T01890111
KELM 191253Z 00000KT 10SM CLR 16/12 A3015 RMK AO2 SLP207 T01610122
KELM 191153Z 00000KT 10SM CLR 12/11 A3015 RMK AO2 SLP208 T01220106 10122 20061 51010
KELM 191053Z 25003KT 10SM SCT003 10/09 A3015 RMK AO2 SLP207 T01000094
KELM 191028Z 00000KT 10SM BKN004 09/08 A3014 RMK AO2 T00890083
KELM 191020Z 00000KT 10SM SCT004 08/08 A3014 RMK AO2 T00830078
KELM 190953Z 00000KT 10SM CLR 07/07 A3013 RMK AO2 SLP202 T00670067
KELM 190901Z AUTO 00000KT 9SM CLR 08/08 A3012 RMK AO2 T00830083
KELM 190853Z AUTO 00000KT 2 1/2SM BR CLR 08/08 A3012 RMK AO2 VIS 1 1/4V5 SLP197 T00830078 53007
KELM 190753Z AUTO 00000KT 10SM CLR 08/08 A3011 RMK AO2 SLP195 T00830083
KELM 190653Z AUTO 28003KT 10SM CLR 09/09 A3009 RMK AO2 SLP189 T00940089
KELM 190553Z AUTO 00000KT 10SM CLR 09/09 A3010 RMK AO2 SLP189 T00940089 10211 20094 53008
KELM 190453Z AUTO 00000KT 10SM CLR 11/09 A3009 RMK AO2 SLP186 T01060089 402500106
KELM 190353Z AUTO 00000KT 10SM CLR 12/10 A3008 RMK AO2 SLP181 T01220100
KELM 190253Z 00000KT 10SM CLR 14/11 A3007 RMK AO2 SLP180 T01390106 53016
KELM 190153Z 14003KT 10SM CLR 17/11 A3006 RMK AO2 SLP174 T01670111
KELM 190053Z 01009KT 10SM CLR 19/10 A3003 RMK AO2 SLP164 T01940100
KELM 182353Z 01009KT 10SM CLR 21/11 A3002 RMK AO2 SLP162 T02110111 10250 20211 53004
KELM 182253Z 01008KT 10SM CLR 23/12 A3001 RMK AO2 SLP159 T02330117
KELM 182153Z 01009KT 10SM CLR 24/12 A3001 RMK AO2 SLP160 T02390122
KELM 182053Z 02009KT 10SM CLR 24/13 A3001 RMK AO2 SLP159 T02440128 56004
KELM 181953Z 04008KT 10SM FEW055 24/13 A3002 RMK AO2 SLP160 T02390128
KELM 181853Z 04008KT 020V090 10SM SCT050 24/13 A3002 RMK AO2 SLP160 T02440128
KELM 181753Z 01012KT 330V050 10SM FEW047 SCT060 24/13 A3002 RMK AO2 SLP162 T02440133 10244 20178 58005
KELM 181653Z 36007KT 320V030 10SM SCT045 BKN060 24/13 A3003 RMK AO2 SLP166 T02390133
KELM 181553Z 04009G15KT 10SM SCT045 BKN055 23/13 A3004 RMK AO2 SLP170 T02280128
KELM 181453Z 02007KT 350V050 10SM FEW039 23/13 A3004 RMK AO2 SLP168 T02280133 51008
KELM 181353Z 02007KT 340V060 10SM CLR 22/13 A3003 RMK AO2 SLP164 T02170133
KELM 181253Z 05008KT 10SM CLR 21/13 A3003 RMK AO2 SLP162 T02110133
KELM 181153Z 23005KT 10SM CLR 18/15 A3001 RMK AO2 SLP158 70001 T01780150 10178 20133 51017
KELM 181053Z 25003KT 10SM CLR 16/14 A3000 RMK AO2 SLP153 T01560144
KELM 180953Z 00000KT 10SM CLR 14/13 A2998 RMK AO2 SLP146 T01390133
KELM 180853Z AUTO 25005KT 10SM CLR 15/14 A2996 RMK AO2 SLP141 T01500139 52009